createdAt,value
2018-03-21T00:00:20.915Z,7.20
2018-03-21T00:02:48.402Z,7.07
2018-03-21T00:05:15.875Z,6.17
2018-03-21T00:07:43.360Z,6.07
2018-03-21T00:10:10.959Z,6.00
2018-03-21T00:12:38.465Z,5.63
2018-03-21T00:15:05.898Z,6.03
2018-03-21T00:17:33.402Z,5.40
2018-03-21T00:20:00.890Z,5.83
2018-03-21T00:22:28.358Z,6.27
2018-03-21T00:24:55.850Z,6.13
2018-03-21T00:27:23.314Z,6.70
2018-03-21T00:29:50.819Z,6.20
2018-03-21T00:32:18.406Z,6.40
2018-03-21T00:34:45.991Z,6.40
2018-03-21T00:37:13.461Z,6.77
2018-03-21T00:39:40.950Z,6.23
2018-03-21T00:42:08.558Z,6.13
2018-03-21T00:44:36.135Z,6.40
2018-03-21T00:47:03.720Z,6.87
2018-03-21T00:49:31.968Z,6.23
2018-03-21T00:51:59.506Z,6.60
2018-03-21T00:54:27.083Z,6.63
2018-03-21T00:56:54.549Z,6.23
2018-03-21T00:59:22.024Z,6.90
2018-03-21T01:01:49.510Z,6.53
2018-03-21T01:04:16.978Z,6.27
2018-03-21T01:06:44.487Z,6.83
2018-03-21T01:09:11.974Z,5.90
2018-03-21T01:11:39.462Z,6.33
2018-03-21T01:14:06.927Z,6.00
2018-03-21T01:16:34.429Z,7.43
2018-03-21T01:19:01.922Z,7.13
2018-03-21T01:21:29.422Z,6.93
2018-03-21T01:23:56.885Z,6.40
2018-03-21T01:26:24.392Z,6.37
2018-03-21T01:28:51.851Z,6.27
2018-03-21T01:31:19.335Z,7.00
2018-03-21T01:33:46.804Z,6.97
2018-03-21T01:36:15.012Z,6.47
2018-03-21T01:38:42.544Z,6.50
2018-03-21T01:41:10.818Z,6.43
2018-03-21T01:43:39.115Z,6.57
2018-03-21T01:46:06.589Z,6.90
2018-03-21T01:48:34.075Z,5.77
2018-03-21T01:51:01.570Z,6.20
2018-03-21T01:53:29.058Z,5.70
2018-03-21T01:55:56.532Z,5.90
2018-03-21T01:58:24.043Z,6.10
2018-03-21T02:00:51.610Z,6.80
2018-03-21T02:03:19.095Z,6.20
2018-03-21T02:05:46.566Z,6.47
2018-03-21T02:08:15.023Z,6.30
2018-03-21T02:10:43.798Z,6.80
2018-03-21T02:13:11.262Z,6.90
2018-03-21T02:15:38.736Z,6.63
2018-03-21T02:18:06.268Z,6.43
2018-03-21T02:20:33.826Z,6.93
2018-03-21T02:23:01.299Z,6.40
2018-03-21T02:25:29.551Z,6.90
2018-03-21T02:27:57.018Z,6.30
2018-03-21T02:30:24.492Z,6.83
2018-03-21T02:32:51.998Z,6.90
2018-03-21T02:35:19.497Z,7.43
2018-03-21T02:37:48.496Z,7.07
2018-03-21T02:40:15.976Z,6.53
2018-03-21T02:42:43.460Z,6.43
2018-03-21T02:45:10.951Z,6.93
2018-03-21T02:47:38.461Z,6.93
2018-03-21T02:50:06.700Z,6.25
2018-03-21T02:52:34.215Z,6.60
2018-03-21T02:55:01.693Z,6.50
2018-03-21T02:57:29.186Z,6.60
2018-03-21T02:59:56.687Z,6.40
2018-03-21T03:02:24.164Z,7.00
2018-03-21T03:04:51.658Z,6.78
2018-03-21T03:07:19.122Z,6.60
2018-03-21T03:09:46.602Z,6.37
2018-03-21T03:12:14.534Z,6.43
2018-03-21T03:14:42.124Z,6.80
2018-03-21T03:17:09.607Z,7.32
2018-03-21T03:19:37.095Z,7.47
2018-03-21T03:22:05.354Z,7.47
2018-03-21T03:24:32.843Z,7.00
2018-03-21T03:27:00.342Z,6.93
2018-03-21T03:29:27.840Z,7.78
2018-03-21T03:31:56.114Z,7.45
2018-03-21T03:34:23.612Z,6.75
2018-03-21T03:36:51.223Z,6.85
2018-03-21T03:39:19.467Z,6.62
2018-03-21T03:41:46.956Z,6.45
2018-03-21T03:44:15.448Z,6.53
2018-03-21T03:46:42.987Z,6.97
2018-03-21T03:49:10.553Z,6.80
2018-03-21T03:51:38.018Z,7.03
2018-03-21T03:54:05.526Z,6.43
2018-03-21T03:56:33.112Z,7.20
2018-03-21T03:59:01.361Z,6.32
2018-03-21T04:01:28.863Z,6.70
2018-03-21T04:03:56.338Z,7.25
2018-03-21T04:06:23.865Z,6.80
2018-03-21T04:08:52.132Z,6.85
2018-03-21T04:11:19.603Z,6.25
2018-03-21T04:13:47.098Z,6.15
2018-03-21T04:16:14.592Z,6.05
2018-03-21T04:18:44.086Z,7.18
2018-03-21T04:21:12.358Z,6.80
2018-03-21T04:23:40.597Z,6.62
2018-03-21T04:26:08.090Z,6.68
2018-03-21T04:28:35.664Z,6.85
2018-03-21T04:31:03.165Z,6.87
2018-03-21T04:33:30.650Z,6.82
2018-03-21T04:35:58.154Z,6.50
2018-03-21T04:38:25.728Z,7.00
2018-03-21T04:40:53.212Z,6.82
2018-03-21T04:43:20.683Z,6.30
2018-03-21T04:45:48.163Z,7.72
2018-03-21T04:48:15.632Z,7.72
2018-03-21T04:50:43.666Z,7.25
2018-03-21T04:53:11.137Z,7.75
2018-03-21T04:55:38.624Z,7.37
2018-03-21T04:58:06.112Z,7.93
2018-03-21T05:00:33.583Z,7.95
2018-03-21T05:03:01.200Z,7.35
2018-03-21T05:05:29.466Z,7.37
2018-03-21T05:07:56.994Z,7.60
2018-03-21T05:10:25.255Z,8.95
2018-03-21T05:12:52.762Z,7.93
2018-03-21T05:15:21.003Z,8.98
2018-03-21T05:17:48.514Z,9.55
2018-03-21T05:20:16.022Z,9.05
2018-03-21T05:22:45.215Z,9.68
2018-03-21T05:25:13.465Z,7.93
2018-03-21T05:27:41.036Z,8.35
2018-03-21T05:30:08.526Z,8.20
2018-03-21T05:32:36.025Z,8.80
2018-03-21T05:35:03.519Z,9.25
2018-03-21T05:37:31.780Z,9.63
2018-03-21T05:39:59.274Z,10.02
2018-03-21T05:42:26.760Z,10.40
2018-03-21T05:44:54.242Z,10.07
2018-03-21T05:47:21.827Z,10.25
2018-03-21T05:49:49.303Z,9.90
2018-03-21T05:52:16.837Z,10.77
2018-03-21T05:54:44.444Z,10.55
2018-03-21T05:57:13.220Z,10.15
2018-03-21T05:59:40.746Z,10.00
2018-03-21T06:02:09.000Z,10.75
2018-03-21T06:04:36.511Z,10.55
2018-03-21T06:07:04.095Z,11.10
2018-03-21T06:09:31.682Z,10.70
2018-03-21T06:11:59.168Z,10.43
2018-03-21T06:14:26.643Z,8.98
2018-03-21T06:16:54.242Z,10.55
2018-03-21T06:19:21.714Z,9.73
2018-03-21T06:21:49.310Z,10.20
2018-03-21T06:24:16.798Z,10.20
2018-03-21T06:26:44.469Z,10.70
2018-03-21T06:29:11.942Z,10.60
2018-03-21T06:31:39.427Z,9.35
2018-03-21T06:34:06.916Z,10.93
2018-03-21T06:36:34.507Z,9.20
2018-03-21T06:39:02.091Z,10.03
2018-03-21T06:41:29.584Z,10.10
2018-03-21T06:43:57.825Z,10.13
2018-03-21T06:46:25.358Z,8.90
2018-03-21T06:48:52.826Z,9.63
2018-03-21T06:51:20.307Z,9.87
2018-03-21T06:53:47.790Z,10.73
2018-03-21T06:56:15.290Z,10.07
2018-03-21T06:58:42.907Z,10.47
2018-03-21T07:01:11.174Z,9.63
2018-03-21T07:03:38.653Z,10.47
2018-03-21T07:06:06.142Z,10.47
2018-03-21T07:08:33.740Z,10.00
2018-03-21T07:11:01.230Z,10.70
2018-03-21T07:13:40.573Z,11.13
2018-03-21T07:19:06.686Z,11.37
2018-03-21T07:21:34.174Z,9.73
2018-03-21T07:24:03.148Z,9.80
2018-03-21T07:26:30.660Z,9.43
2018-03-21T07:28:58.142Z,10.00
2018-03-21T07:31:25.636Z,9.13
2018-03-21T07:33:53.111Z,9.80
2018-03-21T07:36:20.603Z,10.17
2018-03-21T07:38:48.087Z,7.77
2018-03-21T07:41:15.568Z,6.73
2018-03-21T07:43:44.070Z,5.67
2018-03-21T07:46:11.538Z,5.70
2018-03-21T07:48:38.999Z,4.97
2018-03-21T07:51:06.471Z,5.23
2018-03-21T07:53:33.942Z,4.90
2018-03-21T07:56:02.195Z,4.37
2018-03-21T07:58:29.669Z,6.73
2018-03-21T08:00:57.130Z,6.23
2018-03-21T08:03:24.591Z,4.80
2018-03-21T08:05:52.840Z,4.70
2018-03-21T08:08:20.345Z,5.10
2018-03-21T08:10:47.779Z,4.73
2018-03-21T08:13:16.028Z,5.33
2018-03-21T08:15:44.010Z,4.97
2018-03-21T08:18:11.589Z,4.73
2018-03-21T08:20:39.055Z,4.23
2018-03-21T08:23:06.515Z,4.53
2018-03-21T08:25:33.983Z,3.93
2018-03-21T08:28:02.272Z,4.03
2018-03-21T08:30:30.515Z,4.83
2018-03-21T08:32:58.244Z,5.30
2018-03-21T08:35:25.718Z,3.90
2018-03-21T08:37:53.200Z,3.80
2018-03-21T08:40:20.662Z,3.50
2018-03-21T08:42:48.132Z,3.97
2018-03-21T08:45:15.607Z,3.77
2018-03-21T08:47:43.624Z,4.03
2018-03-21T08:50:11.102Z,3.70
2018-03-21T08:52:38.599Z,4.50
2018-03-21T08:55:06.050Z,4.03
2018-03-21T08:57:33.567Z,4.55
2018-03-21T09:00:01.032Z,3.97
2018-03-21T09:02:28.498Z,4.32
2018-03-21T09:04:56.015Z,3.95
2018-03-21T09:07:23.487Z,4.30
2018-03-21T09:09:50.980Z,4.10
2018-03-21T09:12:18.448Z,4.45
2018-03-21T09:14:45.915Z,4.50
2018-03-21T09:17:13.455Z,4.45
2018-03-21T09:19:40.918Z,4.07
2018-03-21T09:22:08.411Z,4.03
2018-03-21T09:24:35.900Z,3.90
2018-03-21T09:27:03.360Z,4.20
2018-03-21T09:29:30.876Z,4.50
2018-03-21T09:31:58.407Z,4.28
2018-03-21T09:34:25.859Z,4.60
2018-03-21T09:36:53.329Z,3.72
2018-03-21T09:39:20.795Z,4.10
2018-03-21T09:41:48.283Z,4.10
2018-03-21T09:44:15.756Z,4.22
2018-03-21T09:46:43.319Z,4.28
2018-03-21T09:49:10.852Z,4.35
2018-03-21T09:51:38.315Z,4.68
2018-03-21T09:54:05.778Z,4.78
2018-03-21T09:56:33.249Z,4.97
2018-03-21T09:59:00.715Z,4.37
2018-03-21T10:01:28.943Z,5.00
2018-03-21T10:03:56.407Z,4.37
2018-03-21T10:06:23.866Z,6.10
2018-03-21T10:08:51.329Z,4.85
2018-03-21T10:11:18.808Z,4.28
2018-03-21T10:13:46.270Z,4.63
2018-03-21T10:16:14.419Z,4.60
2018-03-21T10:18:43.183Z,4.22
2018-03-21T10:21:10.665Z,6.57
2018-03-21T10:23:38.695Z,4.20
2018-03-21T10:26:06.267Z,4.30
2018-03-21T10:28:33.750Z,4.05
2018-03-21T10:31:01.215Z,4.47
2018-03-21T10:33:28.680Z,4.03
2018-03-21T10:35:56.164Z,4.10
2018-03-21T10:38:23.635Z,3.92
2018-03-21T10:40:51.200Z,4.43
2018-03-21T10:43:19.439Z,4.27
2018-03-21T10:45:46.939Z,3.80
2018-03-21T10:48:14.418Z,4.20
2018-03-21T10:50:41.884Z,4.47
2018-03-21T10:53:09.382Z,3.87
2018-03-21T10:55:36.852Z,3.90
2018-03-21T10:58:04.354Z,3.83
2018-03-21T11:00:31.826Z,3.07
2018-03-21T11:03:02.103Z,3.30
2018-03-21T11:05:29.566Z,4.60
2018-03-21T11:07:57.032Z,4.30
2018-03-21T11:10:24.502Z,4.00
2018-03-21T11:12:52.009Z,4.00
2018-03-21T11:15:19.498Z,4.00
2018-03-21T11:17:46.959Z,3.90
2018-03-21T11:20:14.473Z,3.47
2018-03-21T11:22:42.034Z,4.07
2018-03-21T11:25:09.560Z,3.80
2018-03-21T11:27:37.000Z,3.73
2018-03-21T11:30:04.499Z,4.03
2018-03-21T11:32:31.963Z,3.70
2018-03-21T11:34:59.459Z,4.27
2018-03-21T11:37:26.920Z,4.70
2018-03-21T11:39:54.390Z,4.37
2018-03-21T11:42:22.613Z,4.43
2018-03-21T11:44:50.089Z,3.40
2018-03-21T11:47:18.311Z,3.30
2018-03-21T11:49:45.826Z,3.30
2018-03-21T11:52:13.295Z,3.10
2018-03-21T11:54:42.434Z,3.37
2018-03-21T11:57:09.891Z,3.60
2018-03-21T11:59:37.404Z,3.30
2018-03-21T12:02:04.867Z,2.97
2018-03-21T12:04:32.338Z,2.60
2018-03-21T12:06:59.816Z,3.07
2018-03-21T12:09:27.282Z,2.20
2018-03-21T12:11:54.740Z,3.10
2018-03-21T12:14:22.994Z,3.57
2018-03-21T12:16:51.623Z,3.17
2018-03-21T12:19:19.078Z,2.90
2018-03-21T12:21:46.548Z,2.93
2018-03-21T12:24:14.840Z,2.80
2018-03-21T12:26:42.340Z,4.40
2018-03-21T12:29:09.809Z,3.40
2018-03-21T12:31:37.327Z,3.87
2018-03-21T12:34:04.845Z,2.93
2018-03-21T12:36:32.303Z,2.90
2018-03-21T12:38:59.776Z,2.80
2018-03-21T12:41:27.238Z,2.80
2018-03-21T12:43:54.779Z,2.80
2018-03-21T12:46:22.251Z,3.17
2018-03-21T12:48:49.732Z,3.37
2018-03-21T12:51:17.205Z,3.13
2018-03-21T12:53:44.683Z,3.00
2018-03-21T12:56:12.474Z,2.97
2018-03-21T12:58:39.877Z,2.97
2018-03-21T13:01:07.347Z,3.03
2018-03-21T13:03:34.848Z,2.97
2018-03-21T13:06:02.314Z,3.20
2018-03-21T13:08:29.794Z,2.87
2018-03-21T13:10:57.250Z,2.50
2018-03-21T13:13:24.778Z,2.40
2018-03-21T13:15:52.367Z,2.70
2018-03-21T13:18:19.826Z,2.80
2018-03-21T13:20:47.319Z,5.43
2018-03-21T13:23:14.788Z,2.80
2018-03-21T13:25:42.251Z,2.87
2018-03-21T13:28:09.731Z,2.70
2018-03-21T13:30:37.207Z,2.67
2018-03-21T13:33:05.389Z,2.40
2018-03-21T13:35:33.933Z,2.53
2018-03-21T13:38:01.435Z,2.17
2018-03-21T13:40:28.917Z,1.90
2018-03-21T13:42:56.377Z,2.03
2018-03-21T13:45:23.854Z,1.80
2018-03-21T13:47:51.321Z,2.03
2018-03-21T13:50:19.652Z,2.00
2018-03-21T13:52:47.054Z,1.87
2018-03-21T13:55:14.514Z,2.00
2018-03-21T13:57:42.022Z,1.80
2018-03-21T14:00:09.499Z,2.10
2018-03-21T14:02:36.967Z,1.77
2018-03-21T14:05:05.298Z,1.70
2018-03-21T14:07:32.762Z,1.60
2018-03-21T14:10:00.260Z,1.70
2018-03-21T14:12:27.719Z,1.70
2018-03-21T14:14:55.236Z,1.90
2018-03-21T14:17:22.696Z,1.67
2018-03-21T14:19:50.164Z,1.83
2018-03-21T14:22:17.694Z,1.97
2018-03-21T14:24:45.163Z,1.63
2018-03-21T14:27:12.647Z,1.40
2018-03-21T14:29:40.162Z,1.53
2018-03-21T14:32:07.628Z,1.90
2018-03-21T14:34:35.102Z,1.60
2018-03-21T14:37:02.575Z,1.57
2018-03-21T14:39:30.039Z,1.57
2018-03-21T14:41:57.496Z,1.90
2018-03-21T14:44:25.746Z,1.80
2018-03-21T14:46:53.207Z,1.97
2018-03-21T14:49:20.723Z,1.93
2018-03-21T14:51:48.952Z,2.00
2018-03-21T14:54:16.509Z,1.80
2018-03-21T14:56:44.047Z,1.80
2018-03-21T14:59:11.503Z,1.97
2018-03-21T15:01:39.059Z,2.23
2018-03-21T15:04:06.535Z,2.37
2018-03-21T15:06:33.999Z,2.00
2018-03-21T15:09:01.734Z,2.17
2018-03-21T15:11:29.251Z,2.00
2018-03-21T15:13:56.679Z,2.80
2018-03-21T15:16:24.764Z,2.07
2018-03-21T15:18:52.219Z,2.30
2018-03-21T15:21:19.671Z,2.03
2018-03-21T15:23:48.081Z,2.00
2018-03-21T15:26:16.399Z,2.20
2018-03-21T15:28:44.671Z,2.30
2018-03-21T15:31:13.668Z,2.10
2018-03-21T15:33:41.203Z,2.03
2018-03-21T15:36:09.425Z,1.87
2018-03-21T15:38:36.883Z,1.90
2018-03-21T15:41:05.116Z,2.20
2018-03-21T15:43:32.570Z,1.70
2018-03-21T15:46:00.837Z,2.00
2018-03-21T15:48:28.294Z,2.00
2018-03-21T15:50:55.809Z,2.00
2018-03-21T15:53:23.258Z,2.57
2018-03-21T15:55:50.715Z,2.40
2018-03-21T15:58:18.952Z,2.20
2018-03-21T16:00:46.464Z,2.80
2018-03-21T16:03:13.925Z,2.27
2018-03-21T16:05:41.414Z,2.27
2018-03-21T16:08:08.878Z,2.27
2018-03-21T16:10:36.347Z,1.83
2018-03-21T16:13:04.347Z,1.83
2018-03-21T16:15:31.862Z,1.70
2018-03-21T16:18:00.162Z,3.13
2018-03-21T16:20:27.630Z,2.57
2018-03-21T16:22:55.102Z,2.40
2018-03-21T16:25:22.563Z,2.90
2018-03-21T16:27:50.794Z,2.97
2018-03-21T16:30:18.251Z,2.97
2018-03-21T16:32:46.476Z,3.00
2018-03-21T16:35:14.702Z,3.40
2018-03-21T16:37:42.822Z,2.83
2018-03-21T16:40:10.671Z,2.63
2018-03-21T16:42:38.159Z,2.50
2018-03-21T16:45:06.407Z,2.87
2018-03-21T16:47:34.299Z,5.13
2018-03-21T16:50:01.779Z,4.80
2018-03-21T16:52:29.258Z,5.03
2018-03-21T16:54:56.712Z,3.40
2018-03-21T16:57:24.178Z,4.03
2018-03-21T16:59:52.416Z,3.20
2018-03-21T17:02:19.907Z,2.60
2018-03-21T17:04:47.366Z,2.57
2018-03-21T17:07:14.916Z,2.90
2018-03-21T17:09:42.541Z,2.60
2018-03-21T17:12:10.235Z,8.63
2018-03-21T17:14:37.742Z,5.00
2018-03-21T17:17:05.204Z,3.60
2018-03-21T17:19:32.718Z,2.53
2018-03-21T17:22:00.239Z,2.97
2018-03-21T17:24:28.500Z,8.20
2018-03-21T17:26:55.962Z,9.00
2018-03-21T17:29:23.426Z,11.10
2018-03-21T17:31:50.944Z,11.40
2018-03-21T17:34:18.403Z,5.93
2018-03-21T17:36:45.863Z,2.00
2018-03-21T17:39:16.102Z,1.90
2018-03-21T17:41:44.333Z,2.70
2018-03-21T17:44:11.839Z,3.30
2018-03-21T17:46:39.296Z,3.80
2018-03-21T17:49:06.750Z,3.90
2018-03-21T17:51:35.103Z,3.10
2018-03-21T17:54:02.563Z,3.07
2018-03-21T17:56:30.059Z,3.30
2018-03-21T17:58:58.571Z,2.47
2018-03-21T18:01:29.219Z,2.93
2018-03-21T18:03:56.677Z,3.13
2018-03-21T18:06:24.210Z,3.20
2018-03-21T18:08:52.430Z,2.70
2018-03-21T18:11:19.899Z,3.17
2018-03-21T18:13:47.382Z,3.10
2018-03-21T18:16:15.598Z,2.80
2018-03-21T18:18:43.064Z,2.80
2018-03-21T18:21:10.527Z,3.37
2018-03-21T18:23:38.012Z,2.97
2018-03-21T18:26:05.518Z,2.90
2018-03-21T18:28:33.208Z,13.50
2018-03-21T18:31:00.789Z,12.20
2018-03-21T18:33:28.272Z,4.10
2018-03-21T18:35:55.724Z,4.43
2018-03-21T18:38:23.968Z,4.70
2018-03-21T18:40:51.422Z,5.07
2018-03-21T18:43:18.911Z,5.40
2018-03-21T18:45:47.163Z,6.33
2018-03-21T18:48:16.140Z,6.13
2018-03-21T18:50:43.606Z,6.00
2018-03-21T18:53:11.927Z,7.57
2018-03-21T18:55:39.380Z,5.83
2018-03-21T18:58:07.599Z,5.70
2018-03-21T19:00:36.003Z,6.30
2018-03-21T19:03:04.195Z,4.50
2018-03-21T19:05:31.777Z,5.17
2018-03-21T19:07:59.264Z,5.67
2018-03-21T19:10:26.732Z,5.00
2018-03-21T19:12:55.121Z,4.23
2018-03-21T19:15:22.586Z,3.93
2018-03-21T19:17:50.050Z,4.47
2018-03-21T19:20:17.543Z,4.60
2018-03-21T19:22:45.014Z,4.27
2018-03-21T19:25:12.484Z,5.53
2018-03-21T19:27:39.942Z,6.13
2018-03-21T19:30:08.207Z,11.20
2018-03-21T19:32:35.704Z,8.73
2018-03-21T19:35:03.217Z,10.27
2018-03-21T19:37:30.698Z,4.80
2018-03-21T19:39:58.980Z,5.00
2018-03-21T19:42:27.230Z,5.97
2018-03-21T19:44:54.699Z,11.40
2018-03-21T19:47:22.171Z,7.43
2018-03-21T19:49:50.043Z,6.00
2018-03-21T19:52:17.603Z,4.67
2018-03-21T19:54:46.623Z,8.07
2018-03-21T19:57:14.069Z,5.63
2018-03-21T19:59:42.486Z,6.00
2018-03-21T20:02:09.956Z,6.50
2018-03-21T20:04:37.899Z,5.60
2018-03-21T20:07:05.410Z,4.93
2018-03-21T20:09:34.196Z,5.33
2018-03-21T20:12:01.671Z,4.87
2018-03-21T20:14:29.188Z,5.60
2018-03-21T20:16:57.441Z,5.30
2018-03-21T20:19:24.904Z,5.80
2018-03-21T20:21:52.379Z,6.33
2018-03-21T20:24:19.899Z,6.77
2018-03-21T20:26:47.683Z,5.70
2018-03-21T20:29:15.159Z,6.97
2018-03-21T20:31:42.652Z,6.80
2018-03-21T20:34:10.138Z,5.87
2018-03-21T20:36:37.670Z,7.70
2018-03-21T20:39:05.095Z,7.87
2018-03-21T20:41:32.574Z,7.43
2018-03-21T20:44:00.043Z,12.03
2018-03-21T20:46:27.518Z,12.77
2018-03-21T20:48:54.992Z,9.90
2018-03-21T20:51:24.059Z,8.00
2018-03-21T20:53:51.532Z,7.57
2018-03-21T20:56:19.063Z,7.67
2018-03-21T20:58:46.543Z,7.03
2018-03-21T21:01:14.006Z,7.27
2018-03-21T21:03:41.480Z,8.13
2018-03-21T21:06:08.960Z,6.97
2018-03-21T21:08:36.482Z,7.10
2018-03-21T21:11:03.967Z,6.17
2018-03-21T21:13:31.539Z,6.87
2018-03-21T21:15:59.168Z,7.00
2018-03-21T21:18:27.431Z,8.10
2018-03-21T21:20:54.906Z,7.57
2018-03-21T21:23:23.945Z,7.40
2018-03-21T21:25:51.413Z,7.70
2018-03-21T21:28:18.995Z,7.37
2018-03-21T21:30:46.463Z,8.10
2018-03-21T21:33:13.931Z,7.03
2018-03-21T21:35:41.399Z,8.60
2018-03-21T21:38:09.635Z,8.73
2018-03-21T21:40:37.108Z,7.77
2018-03-21T21:43:04.922Z,8.57
2018-03-21T21:45:32.406Z,8.27
2018-03-21T21:47:59.887Z,8.33
2018-03-21T21:50:27.371Z,7.40
2018-03-21T21:52:54.950Z,7.23
2018-03-21T21:55:22.426Z,6.10
2018-03-21T21:57:49.920Z,6.07
2018-03-21T22:00:17.398Z,6.30
2018-03-21T22:02:44.931Z,5.87
2018-03-21T22:05:13.182Z,5.10
2018-03-21T22:07:40.698Z,4.80
2018-03-21T22:10:08.265Z,5.03
2018-03-21T22:12:37.241Z,4.30
2018-03-21T22:15:05.570Z,4.33
2018-03-21T22:17:33.075Z,4.23
2018-03-21T22:20:00.563Z,4.20
2018-03-21T22:22:28.053Z,3.87
2018-03-21T22:24:55.531Z,4.60
2018-03-21T22:27:23.006Z,4.33
2018-03-21T22:29:50.463Z,4.23
2018-03-21T22:32:17.939Z,4.10
2018-03-21T22:34:46.186Z,4.63
2018-03-21T22:37:13.766Z,4.17
2018-03-21T22:39:41.231Z,4.23
2018-03-21T22:42:08.700Z,4.60
2018-03-21T22:44:36.166Z,4.20
2018-03-21T22:47:05.211Z,4.33
2018-03-21T22:49:32.726Z,4.33
2018-03-21T22:52:00.187Z,4.20
2018-03-21T22:54:27.765Z,4.43
2018-03-21T22:56:55.154Z,4.40
2018-03-21T22:59:22.654Z,4.67
2018-03-21T23:01:50.113Z,4.63
2018-03-21T23:04:17.574Z,4.60
2018-03-21T23:06:45.100Z,4.63
2018-03-21T23:09:12.582Z,4.10
2018-03-21T23:11:40.046Z,4.23
2018-03-21T23:14:07.508Z,4.47
2018-03-21T23:16:36.015Z,4.30
2018-03-21T23:19:03.572Z,3.93
2018-03-21T23:21:31.115Z,4.63
2018-03-21T23:23:58.601Z,4.47
2018-03-21T23:26:26.066Z,4.93
2018-03-21T23:28:53.533Z,4.40
2018-03-21T23:31:21.002Z,4.67
2018-03-21T23:33:49.239Z,4.63
2018-03-21T23:36:16.736Z,4.37
2018-03-21T23:38:44.239Z,4.40
2018-03-21T23:41:11.723Z,5.00
2018-03-21T23:43:39.829Z,4.53
2018-03-21T23:46:07.299Z,4.57
2018-03-21T23:48:34.941Z,4.57
2018-03-21T23:51:02.416Z,4.50
2018-03-21T23:53:29.895Z,4.20
2018-03-21T23:55:58.161Z,4.53
2018-03-21T23:58:25.739Z,4.00
